x

9444090 - Port Angeles, Wa (ptaw1) Weather Station

5:36 - Fri 25th Jul 2014 All times are PDT. -7 hours from GMT.

  • Wind
    17mph, 21mph gusts
  • Sea Temp 52°f
  • Luft Temp 60°f
  • Sea Pressure 1020.2mb
  • 9444090 - Port Angeles, Wa
  • 9444090 - Port Angeles, Wa

More Historic Weather Station data

Upgrade to MSW Pro to gain access to the past 30 days of data for over 8000 Wavebouys and Weather Stations around the globe.

Join Pro

Comparision Forecast

View Surf forecast
   
Fr 07/25 5:36 17 21 mph 1020.2mb 52f 60f
5:30 17 23 mph 1020.3mb 52f 60f
5:24 17 21 mph 1020.4mb 52f 60f
5:18 15 21 mph 1020.4mb 52f 60f
5:12 16 20 mph 1020.4mb 52f 60f
5:06 16 22 mph 1020.5mb 52f 60f
5:00 17 21 mph 1020.6mb 52f 60f
4:36 18 22 mph 1020.7mb 52f 60f
4:30 18 23 mph 1020.7mb 52f 59f
4:24 17 22 mph 1020.7mb 52f 60f
4:18 18 22 mph 1020.8mb 52f 60f
4:12 17 20 mph 1020.8mb 52f 60f
4:06 15 20 mph 1020.8mb 52f 60f
4:00 16 18 mph 1020.8mb 52f 60f
3:36 15 17 mph 1020.8mb 52f 60f
3:30 15 16 mph 1020.8mb 52f 60f
3:24 14 17 mph 1020.9mb 52f 60f
3:18 14 15 mph 1020.9mb 52f 61f
3:12 13 16 mph 1021mb 52f 60f
3:06 15 17 mph 1021mb 52f 60f
3:00 14 16 mph 1021mb 53f 61f
2:36 14 15 mph 1021.1mb 53f 62f
2:30 10 14 mph 1021.1mb 53f 62f
2:24 10 14 mph 1021.2mb 53f 62f
2:18 13 14 mph 1021.2mb 53f 62f
2:12 8 11 mph 1021.2mb 53f 62f
2:06 7 10 mph 1021.3mb 53f 62f
2:00 7 10 mph 1021.2mb 53f 63f
1:36 8
mph
1021.4mb 53f 61f
1:30 7 9 mph 1021.4mb 53f 61f
1:24 6 9 mph 1021.4mb 53f 61f
1:18 8 10 mph 1021.4mb 53f 61f
1:12 8 9 mph 1021.4mb 52f 61f
1:06 7 9 mph 1021.4mb 52f 61f
1:00 7 9 mph 1021.4mb 52f 64f
12:36 7 8 mph 1021.4mb 52f 64f
12:30 7 8 mph 1021.4mb 52f 64f
12:24 3 6 mph 1021.4mb 52f 64f
12:18 3 5 mph 1021.4mb 52f 64f
12:12 3
mph
1021.5mb 52f 65f
12:06 2 3 mph 1021.5mb 52f 64f
12:00 2 3 mph 1021.5mb 52f 64f
11:36 3 5 mph 1021.6mb 52f 63f
11:30 2 3 mph 1021.6mb 52f 61f
11:24 2 3 mph 1021.6mb 52f 61f
11:18 2 3 mph 1021.6mb 52f 61f
11:12 2 5 mph 1021.6mb 52f 62f
11:06 2 3 mph 1021.6mb 52f 62f
11:00 2 5 mph 1021.5mb 52f 61f
10:36 5 8 mph 1021.4mb 52f 63f
10:30 5 6 mph 1021.4mb 52f 62f
10:24 5 6 mph 1021.4mb 52f 62f
10:18 3 5 mph 1021.5mb 52f 62f
10:12 3 5 mph 1021.5mb 52f 64f
10:06 5 7 mph 1021.5mb 52f 63f
10:00 6 7 mph 1021.4mb 51f 60f
9:36 6 7 mph 1021.3mb 51f 59f
9:30 6 7 mph 1021.4mb 51f 59f
9:24 6 7 mph 1021.4mb 51f 59f
9:18 6 7 mph 1021.4mb 51f 58f
9:12 7 8 mph 1021.4mb 51f 58f
9:06 7 8 mph 1021.4mb 51f 59f
9:00 7 8 mph 1021.4mb 51f 60f
8:36 2
mph
1021.4mb 52f 62f
8:30 2
mph
1021.4mb 52f 62f
8:24 2
mph
1021.4mb 52f 61f
8:18 2
mph
1021.4mb 51f 61f
8:12  -  2 mph 1021.5mb 51f 60f
8:06 1 2 mph 1021.5mb 51f 60f
8:00  -  1 mph 1021.4mb 51f 59f
7:36  -  3 mph 1021.5mb 52f 60f
7:30 2 3 mph 1021.5mb 52f 60f
7:24  -  2 mph 1021.5mb 52f 60f
7:18 1 2 mph 1021.4mb 52f 58f
7:12 2
mph
1021.4mb 52f 58f
7:06 2
mph
1021.4mb 52f 59f
7:00 1
mph
1021.4mb 52f 58f
6:36 2 3 mph 1021.4mb 52f 56f
6:30 3
mph
1021.4mb 52f 56f
6:24  -  2 mph 1021.4mb 52f 56f
6:18 1 2 mph 1021.5mb 52f 55f
6:12 2 3 mph 1021.5mb 52f 55f
6:06 2
mph
1021.5mb 52f 55f
6:00 1 2 mph 1021.5mb 52f 55f
5:36 3
mph
1021.6mb 52f 55f
5:30 3 5 mph 1021.7mb 51f 55f
5:24 2 3 mph 1021.7mb 51f 55f
5:18 2
mph
1021.7mb 51f 55f
5:12  -  2 mph 1021.7mb 51f 56f
5:06 1 2 mph 1021.7mb 51f 56f
5:00  -  1 mph 1021.8mb 51f 56f
4:36 2 3 mph 1021.8mb 51f 56f
4:30 2 5 mph 1021.8mb 51f 56f
4:24 3
mph
1021.8mb 51f 56f
4:18 3 5 mph 1021.8mb 51f 56f
4:12 3
mph
1021.9mb 51f 57f
4:06 2 3 mph 1021.9mb 51f 57f
4:00 2 3 mph 1022mb 51f 57f
3:36 3 6 mph 1022.1mb 52f 57f
3:30 6 7 mph 1022.1mb 52f 57f
3:24 5 6 mph 1022.2mb 52f 57f
3:18 3 5 mph 1022.2mb 52f 56f
3:12 2 5 mph 1022.2mb 52f 56f
3:06 3 5 mph 1022.2mb 52f 57f
3:00 2 3 mph 1022.2mb 52f 57f
2:36 2 3 mph 1022.3mb 52f 57f
2:30 1 3 mph 1022.3mb 52f 57f
2:24 2 5 mph 1022.3mb 52f 57f
2:18 2 5 mph 1022.3mb 51f 57f
2:12 2 6 mph 1022.4mb 51f 57f
2:06 3 6 mph 1022.4mb 51f 57f
2:00 3 5 mph 1022.4mb 51f 57f
1:36 6 8 mph 1022.5mb 51f 57f
1:30 5 8 mph 1022.5mb 51f 57f
1:24 6 9 mph 1022.5mb 51f 57f
1:18 5 8 mph 1022.5mb 51f 57f
1:12 3 7 mph 1022.5mb 51f 57f
1:06 2 7 mph 1022.5mb 51f 57f
1:00 5 7 mph 1022.6mb 51f 57f
12:36 3 7 mph 1022.7mb 51f 57f
12:30 2 9 mph 1022.7mb 51f 57f
12:24 5 8 mph 1022.7mb 51f 57f
12:18 5 9 mph 1022.8mb 51f 57f
12:12 6 8 mph 1022.8mb 51f 57f
12:06 3 6 mph 1022.8mb 51f 57f
12:00 2 6 mph 1022.8mb 51f 57f
Do 07/24 11:36 2 5 mph 1022.9mb 51f 57f
11:30 2 5 mph 1022.9mb 51f 57f
11:24 2 6 mph 1022.9mb 51f 57f
11:18 3 7 mph 1022.9mb 51f 58f
11:12 5 6 mph 1023mb 51f 58f
11:06 2 5 mph 1023mb 51f 58f
11:00 2 5 mph 1023mb 51f 57f
10:36 5 9 mph 1023.1mb 51f 58f
10:30 8 10 mph 1023.1mb 51f 58f
10:24 6 11 mph 1023.1mb 51f 58f
10:18 7 10 mph 1023.1mb 51f 58f
10:12 7 13 mph 1023.1mb 51f 58f
10:06 8 11 mph 1023.1mb 51f 58f
10:00 8 14 mph 1023.1mb 51f 58f
9:36 15 20 mph 1023mb 51f 58f
9:30 15 18 mph 1023mb 51f 57f
9:24 13 17 mph 1022.9mb 51f 57f
9:18 14 20 mph 1022.9mb 51f 57f
9:12 15 20 mph 1022.9mb 51f 57f
9:06 14 20 mph 1023mb 51f 57f
9:00 11 15 mph 1022.9mb 51f 57f
8:36 13 18 mph 1022.9mb 52f 58f
8:30 15 17 mph 1022.7mb 52f 58f
8:24 13 16 mph 1022.7mb 52f 58f
8:18 9 13 mph 1022.7mb 52f 58f
8:12 9 15 mph 1022.6mb 52f 58f
8:06 13 15 mph 1022.5mb 52f 59f
8:00 10 13 mph 1022.5mb 52f 59f
7:36 9 14 mph 1022.6mb 52f 59f
7:30 9 14 mph 1022.7mb 52f 59f
7:24 9 13 mph 1022.7mb 52f 59f
7:18 9 11 mph 1022.7mb 52f 58f
7:12 9 11 mph 1022.7mb 52f 59f
7:06 9 14 mph 1022.7mb 52f 58f
7:00 11 15 mph 1022.7mb 52f 58f
6:36 15 18 mph 1022.7mb 52f 59f
6:30 10 14 mph 1022.8mb 52f 59f
6:24 7 11 mph 1022.8mb 52f 59f
6:18 9 15 mph 1022.9mb 52f 59f
6:12 13 20 mph 1022.8mb 52f 59f
6:06 14 21 mph 1022.9mb 52f 59f
6:00 17 22 mph 1022.8mb 52f 59f
5:54 16 21 mph 1022.7mb 52f 60f
5:48 16 21 mph 1022.7mb 52f 60f
5:36 21 26 mph 1022.8mb 52f 59f
5:30 17 22 mph 1022.8mb 52f 58f
5:24 17 23 mph 1022.7mb 51f 58f
5:18 17 23 mph 1022.8mb 51f 58f
5:12 15 18 mph 1022.9mb 51f 58f
5:06 15 22 mph 1022.9mb 51f 57f
5:00 13 18 mph 1022.9mb 51f 57f
4:54 16 20 mph 1022.9mb 51f 57f
4:48 13 17 mph 1022.9mb 51f 57f
4:36 16 22 mph 1023mb 51f 59f
4:30 20 24 mph 1022.9mb 51f 60f
4:24 20 23 mph 1022.9mb 51f 61f
4:18 14 23 mph 1023mb 51f 62f
4:12 13 21 mph 1023mb 51f 62f
4:06 18 25 mph 1023mb 51f 61f
4:00 18 25 mph 1023mb 51f 60f
3:54 15 25 mph 1023mb 51f 60f
3:48 18 29 mph 1023mb 51f 60f
3:36 21 29 mph 1022.8mb 51f 59f
3:30 18 28 mph 1022.7mb 51f 59f
3:24 17 24 mph 1022.7mb 51f 59f
3:18 16 25 mph 1022.6mb 51f 58f
3:12 22 32 mph 1022.4mb 51f 57f
3:06 17 24 mph 1022.2mb 51f 58f
3:00 22 26 mph 1022.2mb 52f 57f
2:54 18 25 mph 1022.1mb 52f 57f
2:48 18 25 mph 1022mb 52f 57f
2:36 21 29 mph 1021.9mb 52f 58f
2:30 22 28 mph 1021.9mb 52f 59f
2:24 20 24 mph 1021.8mb 52f 59f
2:18 18 28 mph 1021.8mb 52f 59f
2:12 24 30 mph 1021.8mb 52f 59f
2:06 22 29 mph 1021.8mb 52f 59f
2:00 23 30 mph 1021.8mb 52f 59f
1:54 24 31 mph 1021.7mb 52f 58f
1:48 24 30 mph 1021.7mb 52f 59f
1:36 22 30 mph 1021.7mb 52f 58f
1:30 20 29 mph 1021.6mb 52f 58f
1:24 20 26 mph 1021.7mb 52f 58f
1:18 22 26 mph 1021.7mb 52f 58f
1:12 22 31 mph 1021.6mb 52f 58f
1:06 23 31 mph 1021.5mb 52f 58f
1:00 22 31 mph 1021.4mb 52f 59f
12:54 24 31 mph 1021.4mb 52f 59f
12:48 24 34 mph 1021.3mb 52f 59f
12:36 24 30 mph 1021.2mb 52f 58f
12:30 25 33 mph 1021.2mb 52f 58f
12:24 25 32 mph 1021.2mb 52f 58f
12:18 23 28 mph 1021.2mb 52f 58f
12:12 22 30 mph 1021.1mb 51f 58f
12:06 23 29 mph 1021.1mb 51f 58f
12:00 22 29 mph 1021mb 51f 58f
11:54 24 31 mph 1021mb 51f 58f
11:48 23 32 mph 1021mb 51f 58f
11:36 24 32 mph 1020.9mb 51f 58f
11:30 23 31 mph 1020.8mb 51f 58f
11:24 24 33 mph 1020.8mb 51f 58f
11:18 25 34 mph 1020.7mb 51f 58f
11:12 25 34 mph 1020.6mb 51f 58f
11:06 24 36 mph 1020.5mb 51f 58f
11:00 25 31 mph 1020.5mb 51f 57f
10:54 25 31 mph 1020.5mb 51f 57f
10:48 22 32 mph 1020.4mb 51f 57f
10:36 22 30 mph 1020.4mb 51f 57f
10:30 25 33 mph 1020.4mb 52f 58f
10:24 24 30 mph 1020.3mb 52f 58f
10:18 22 34 mph 1020.3mb 52f 60f
10:12 18 28 mph 1020.3mb 52f 59f
10:06 16 24 mph 1020.4mb 51f 60f
10:00 13 20 mph 1020.5mb 51f 60f
9:54 11 20 mph 1020.4mb 51f 59f
9:48 10 20 mph 1020.3mb 51f 58f
9:36 10 13 mph 1020.3mb 51f -
9:30 10 14 mph 1020.3mb 51f -
9:24 9 14 mph 1020.2mb 51f -
9:18 10 13 mph 1020.1mb 51f -
9:12 10 13 mph 1020mb 51f -
9:06 9 15 mph 1019.9mb 51f -
9:00 13 14 mph 1019.7mb 51f -
8:54 10 14 mph 1019.6mb 51f -
8:48 8 13 mph 1019.6mb 51f -
8:36 5 7 mph 1019.5mb 51f 57f
8:30 7 9 mph 1019.4mb 51f 56f
8:24 8 11 mph 1019.3mb 51f 56f
8:18 8 9 mph 1019.3mb 51f 57f
8:12 3 5 mph 1019.2mb 51f 58f
8:06 2 3 mph 1019.1mb 51f 58f
8:00  -  2 mph 1019mb 51f 58f
7:54 2 3 mph 1019mb 51f 58f
7:48 2 5 mph 1019mb 51f 57f
7:36 3 6 mph 1018.9mb 51f 57f
7:30 3 5 mph 1018.9mb 51f 57f
7:24 2 3 mph 1018.9mb 51f 56f
7:18 2 7 mph 1018.9mb 51f 56f
7:12 5 8 mph 1018.8mb 51f 56f
7:06 3 8 mph 1018.7mb 51f 56f
7:00 5 7 mph 1018.6mb 51f 56f
6:54 6 9 mph 1018.6mb 52f 56f
6:48 6 8 mph 1018.6mb 52f 56f
6:36 6 10 mph 1018.6mb 52f 56f
6:30 6 10 mph 1018.5mb 52f 56f
6:24 5 10 mph 1018.5mb 51f 56f
6:18 3 8 mph 1018.5mb 51f 56f
6:12 6 10 mph 1018.4mb 51f 56f
6:06 3 8 mph 1018.3mb 51f 56f
6:00 5 7 mph 1018.4mb 51f 56f
5:54 5 8 mph 1018.3mb 51f 56f
5:48 1 3 mph 1018.2mb 51f 56f
5:36 2 3 mph 1018.2mb 51f 55f
5:30 2 5 mph 1018.1mb 51f 55f
5:24 1 3 mph 1018.1mb 51f 54f
5:18 2 7 mph 1018mb 51f 55f
5:12 6 7 mph 1018mb 51f 55f
5:06 5 6 mph 1018mb 51f 55f
5:00 5 6 mph 1017.9mb 51f 56f
4:54 2 5 mph 1017.9mb 51f 56f
4:48 5 6 mph 1017.8mb 51f 56f
4:36 7 10 mph 1017.7mb 51f 56f
4:30 7 9 mph 1017.6mb 51f 56f
4:24 7 8 mph 1017.5mb 51f 56f
4:18 7 8 mph 1017.4mb 51f 55f
4:12 6 7 mph 1017.3mb 51f 55f
4:06 3 5 mph 1017.3mb 51f 55f
4:00 2 5 mph 1017.2mb 51f 56f
3:54  -  1 mph 1017.1mb 51f 56f
3:48  -  1 mph 1017.1mb 51f 56f
3:36  -  1 mph 1017mb 51f 56f
3:30  -  1 mph 1017mb 51f 56f
3:24  -  2 mph 1017.1mb 51f 56f
3:18 1 2 mph 1017mb 51f 56f
3:12 1 2 mph 1017mb 51f 56f
3:06 1 2 mph 1017mb 51f 56f
3:00  -  mph 1017mb 51f 55f
2:54  -  1 mph 1016.9mb 51f 55f
2:48  -  2 mph 1017mb 51f 56f
2:36 2 3 mph 1016.9mb 51f 55f
2:30  -  2 mph 1016.9mb 51f 55f
2:24 1 3 mph 1016.9mb 51f 55f
2:18 3
mph
1017mb 51f 55f
2:12 2 5 mph 1016.9mb 51f 55f
2:06 5 6 mph 1016.9mb 51f 55f
2:00 3 5 mph 1016.9mb 51f 55f
1:54 3 5 mph 1016.9mb 51f 55f
1:48 1 2 mph 1016.8mb 51f 55f
1:36  -  1 mph 1016.8mb 51f 54f
1:30  -  2 mph 1016.7mb 51f 54f
1:24 2 3 mph 1016.7mb 51f 54f
1:18 2 5 mph 1016.6mb 51f 54f
1:12 3 5 mph 1016.6mb 51f 55f
1:06 3 5 mph 1016.5mb 51f 55f
1:00 3
mph
1016.3mb 51f 55f
12:54 3 5 mph 1016.3mb 51f 54f
12:48 3
mph
1016.2mb 51f 54f
12:36 3 5 mph 1016.2mb 51f 55f
12:30 5 6 mph 1016.1mb 51f 56f
12:24  -  2 mph 1016.1mb 51f 56f
12:18  -  1 mph 1016.1mb 51f 56f
12:12  -  1 mph 1016.1mb 51f 56f
12:06  -  5 mph 1016.1mb 51f 57f
12:00 3 5 mph 1016.2mb 51f 57f
Mi 07/23 11:54 3
mph
1016.2mb 51f 58f
11:48 1 2 mph 1016.2mb 51f 59f
11:36 3 5 mph 1016.3mb 51f 59f
11:30 3 5 mph 1016.4mb 51f 59f
11:24 5 7 mph 1016.4mb 51f 59f
11:18 6 7 mph 1016.4mb 51f 59f
11:12 5 6 mph 1016.4mb 51f 59f
11:06 6 7 mph 1016.4mb 51f 59f
11:00 5 6 mph 1016.3mb 51f 59f
10:54 2 5 mph 1016.5mb 51f 59f
10:48 5 7 mph 1016.5mb 51f 59f
10:36 1 3 mph 1016.7mb 51f 59f
10:30  -  2 mph 1016.7mb 51f 59f
10:24 1 3 mph 1016.7mb 51f 59f
10:18 1 2 mph 1016.6mb 51f 59f
10:12 2 5 mph 1016.5mb 51f 59f
10:06 5 6 mph 1016.6mb 51f 58f
10:00 2 3 mph 1016.4mb 51f 59f
9:54  -  5 mph 1016.4mb 51f 58f
9:48 2 5 mph 1016.5mb 51f 58f
9:36 2 3 mph 1016.7mb 51f 58f
9:30 2 5 mph 1016.7mb 51f 58f
9:24 2 3 mph 1016.7mb 51f 58f
9:18 3 5 mph 1016.6mb 51f 58f
9:12 2 3 mph 1016.5mb 51f 57f
9:06 3 5 mph 1016.5mb 51f 57f
9:00 5 6 mph 1016.3mb 51f 58f
8:54 3 5 mph 1016.3mb 51f 58f
8:48 2 3 mph 1016.2mb 51f 58f
8:36 2 3 mph 1016mb 51f 57f
8:30 3 5 mph 1015.9mb 52f 57f
8:24 3
mph
1015.9mb 52f 57f
8:18 2 3 mph 1015.9mb 52f 57f
8:12 2 3 mph 1015.9mb 52f 56f
8:06 3 5 mph 1015.8mb 52f 56f
8:00 5
mph
1015.9mb 52f 56f
7:54 3 5 mph 1015.8mb 52f 56f
7:48 5 6 mph 1015.8mb 52f 56f
7:36 3 6 mph 1015.8mb 52f 56f
7:30 5 6 mph 1015.8mb 52f 56f
7:24 5 7 mph 1015.8mb 52f 57f
7:18 6 7 mph 1015.9mb 52f 57f
7:12 6 7 mph 1015.8mb 52f 57f
7:06 5 7 mph 1015.8mb 52f 57f
7:00 7 8 mph 1015.8mb 52f 58f
6:54 5 7 mph 1015.8mb 52f 58f
6:48 6 8 mph 1015.8mb 52f 57f
6:36 3 5 mph 1015.7mb 52f 60f
6:30 2 5 mph 1015.8mb 52f 60f
6:24 2 5 mph 1015.8mb 52f 60f
6:18 3 5 mph 1015.8mb 52f 60f
6:12 2 3 mph 1015.9mb 52f 60f
6:06 2 3 mph 1015.8mb 52f 60f
6:00 2 5 mph 1015.8mb 52f 60f
5:54 6 8 mph 1015.8mb 52f 60f
5:48 7 8 mph 1015.7mb 52f 61f
5:36 7 8 mph 1015.6mb 52f 60f
5:30 6 8 mph 1015.6mb 52f 60f
5:24 6 9 mph 1015.5mb 52f 60f
5:18 8 11 mph 1015.6mb 52f 60f
5:12 9 11 mph 1015.7mb 52f 59f
5:06 5 6 mph 1015.8mb 52f 59f
5:00 6 9 mph 1015.6mb 52f 59f
4:54 9 10 mph 1015.5mb 52f 58f
4:48 8 11 mph 1015.6mb 52f 58f
4:36 11 14 mph 1015.6mb 51f 58f
4:30 11 14 mph 1015.6mb 51f 59f
4:24 10 13 mph 1015.8mb 51f 60f
4:18 9 11 mph 1015.9mb 51f 60f
4:12 7 14 mph 1015.9mb 51f 59f
4:06 7 9 mph 1015.9mb 51f 60f
4:00 7 10 mph 1015.9mb 51f 60f
3:54 8 10 mph 1015.9mb 51f 60f
3:48 6 10 mph 1015.8mb 51f 60f
3:36 9 13 mph 1015.6mb 51f 60f
3:30 9 13 mph 1015.5mb 51f 60f
3:24 8 10 mph 1015.6mb 51f 60f
3:18 7 9 mph 1015.4mb 51f 61f
3:12 9 13 mph 1015.3mb 51f 61f
3:06 7 11 mph 1015.4mb 51f 61f
3:00 8 13 mph 1015.4mb 51f 61f
2:54 7 9 mph 1015.4mb 52f 61f
2:48 8 11 mph 1015.2mb 52f 61f
2:36 5 7 mph 1015.5mb 52f 62f
2:30 6 9 mph 1015.5mb 52f 62f
2:24 6 9 mph 1015.6mb 52f 61f
2:18 9 13 mph 1015.7mb 52f 61f
2:12 7 9 mph 1015.6mb 52f 61f
2:06 7 9 mph 1015.7mb 52f 60f
2:00 3 5 mph 1015.7mb 53f 59f
1:54 1 2 mph 1015.8mb 53f 58f
1:48 1 3 mph 1015.7mb 53f 56f
1:36 3 5 mph 1015.4mb 53f 59f
1:30 3 5 mph 1015.5mb 53f 58f
1:24 5 7 mph 1015.5mb 53f 57f
1:18 6 7 mph 1015.4mb 53f 57f
1:12 6 8 mph 1015.2mb 53f 57f
1:06 3 5 mph 1015.2mb 53f 59f
1:00 5 7 mph 1015.3mb 53f 59f
12:54 5 6 mph 1015.3mb 53f 58f
12:48 5 7 mph 1015.2mb 52f 58f
12:36 8 10 mph 1015.1mb 52f 57f
12:30 10 13 mph 1015.1mb 52f 58f
12:24 9 13 mph 1015.1mb 52f 58f
12:18 10 13 mph 1015.2mb 52f 57f
12:12 10 11 mph 1015.1mb 52f 57f
12:06 9 11 mph 1015mb 52f 58f
12:00 8 10 mph 1015.1mb 52f 58f
11:54 7 8 mph 1015.2mb 52f 58f
11:48 7 9 mph 1015.1mb 52f 57f
11:36 7 8 mph 1015mb 52f 58f
11:30 8 9 mph 1014.9mb 52f 58f
11:24 8 10 mph 1015mb 52f 57f
11:18 9 10 mph 1015mb 52f 57f
11:12 7 9 mph 1015mb 52f 58f
11:06 7 9 mph 1014.9mb 52f 57f
11:00 8 10 mph 1014.9mb 53f 57f
10:54 8 9 mph 1015mb 53f 56f
10:48 6 8 mph 1015.1mb 53f 56f
10:36 6 7 mph 1015mb 53f 56f
10:30 2 5 mph 1015.2mb 53f 56f
10:24 3 7 mph 1015.2mb 53f 57f
10:18 6 7 mph 1014.8mb 53f 57f
10:12 6 9 mph 1014.6mb 53f 57f
10:06 8 9 mph 1014.5mb 53f 56f
10:00 6 8 mph 1014.7mb 53f 56f
9:54 8 10 mph 1014.5mb 53f 56f
9:48 9 11 mph 1014.5mb 53f 56f
9:36 9 11 mph 1014.5mb 53f 55f
9:30 9 10 mph 1014.6mb 53f 56f
9:24 8 9 mph 1014.6mb 53f 56f
9:18 9 11 mph 1014.7mb 53f 57f
9:12 8 9 mph 1014.7mb 53f 57f
9:06 7 9 mph 1014.6mb 53f 57f
9:00 7 8 mph 1014.6mb 53f 56f
8:54 5
mph
1014.5mb 53f 56f
8:48 3 5 mph 1014.4mb 53f 57f
8:36  -  2 mph 1014.5mb 53f 58f
8:30 1 2 mph 1014.4mb 53f 57f
8:24  -  1 mph 1014.4mb 53f 57f
8:18 2 5 mph 1014.6mb 53f 57f
8:12 2 3 mph 1014.6mb 52f 57f
8:06 2 6 mph 1014.4mb 52f 57f
8:00 2 5 mph 1014.4mb 52f 57f
7:54 2 5 mph 1014.3mb 52f 56f
7:48 3 5 mph 1014.6mb 52f 56f
7:36 3 7 mph 1014.7mb 52f 57f
7:30 5 6 mph 1014.9mb 52f 56f
7:24 1 3 mph 1014.3mb 52f 56f
7:18 3
mph
1014.1mb 52f 56f
7:12 1 3 mph 1014.2mb 52f 56f
7:06  -  1 mph 1014.3mb 52f 56f
7:00  -  2 mph 1014.3mb 52f 56f
6:54 2 3 mph 1014.2mb 52f 55f
6:48 3 5 mph 1014.3mb 52f 56f
6:36 1 3 mph 1014.5mb 52f 56f
6:30 2 3 mph 1014.6mb 52f 56f
6:24  -  2 mph 1014.7mb 52f 56f
6:18 1 2 mph 1014.6mb 52f 56f
6:12 2 6 mph 1014.7mb 52f 56f
6:06 3 6 mph 1014.8mb 52f 56f
6:00 3 6 mph 1014.7mb 52f 56f
5:54 1 3 mph 1014.4mb 52f 56f
5:48 2
mph
1014.5mb 52f 55f
5:36 1 3 mph 1014.7mb 52f 56f
5:30 3 5 mph 1014.7mb 52f 56f
5:24  -  1 mph 1014.6mb 52f 55f
5:18  -  5 mph 1014.8mb 52f 55f
5:12 5 6 mph 1014.9mb 52f 55f
5:06 3
mph
1014.8mb 52f 54f
5:00 1 2 mph 1014.8mb 52f 54f
4:54 2 3 mph 1014.8mb 52f 54f
4:48 1 5 mph 1014.8mb 52f 54f
4:36 2 3 mph 1014.9mb 52f 54f
4:30  -  1 mph 1015mb 52f 54f
4:24  -  2 mph 1015mb 52f 54f
4:18  -  3 mph 1014.9mb 52f 54f
4:12 3 5 mph 1014.9mb 52f 55f
4:06 1 3 mph 1015.2mb 52f 55f
4:00 2 3 mph 1015.2mb 52f 55f
3:54 2 3 mph 1015.2mb 52f 55f
3:48 2 3 mph 1015.3mb 52f 55f
3:36 3 6 mph 1015.3mb 52f 54f
3:30 5 6 mph 1015.3mb 52f 54f
3:24 2 5 mph 1015.5mb 52f 54f
3:18 2 3 mph 1015.3mb 52f 54f
3:12 2 3 mph 1015.4mb 52f 54f
3:06 3 5 mph 1015.6mb 52f 54f
3:00 3 5 mph 1015.6mb 52f 54f
2:54 3 8 mph 1015.5mb 52f 54f
2:48 5 6 mph 1015.7mb 53f 54f
2:36 2 6 mph 1015.9mb 53f 54f
2:30 5 6 mph 1015.9mb 53f 54f
2:24 2
mph
1015.9mb 53f 55f
2:18 3 5 mph 1016mb 53f 55f
2:12 5 6 mph 1015.9mb 53f 55f
2:06 2 3 mph 1015.9mb 53f 55f
2:00 3 7 mph 1016mb 53f 55f
1:54 2 3 mph 1016.1mb 53f 55f
1:48 3 6 mph 1016.1mb 53f 55f
1:36 2 5 mph 1016mb 53f 55f
1:30 3 5 mph 1016mb 53f 55f
1:24 2
mph
1016.2mb 53f 55f
1:18  -  6 mph 1016.2mb 53f 55f
1:12 2 5 mph 1016.3mb 52f 56f
1:06 3 5 mph 1016.4mb 52f 56f
1:00 2 3 mph 1016.4mb 52f 56f
12:54 3 5 mph 1016.5mb 52f 56f
12:48 2 3 mph 1016.5mb 52f 56f
12:36 5 8 mph 1016.4mb 52f 56f
12:30  -  2 mph 1016.5mb 52f 56f
12:24 3 6 mph 1016.6mb 52f 56f
12:18 6 8 mph 1016.6mb 52f 56f
12:12  -  3 mph 1016.6mb 52f 56f
12:06 2 5 mph 1016.7mb 52f 56f
12:00 2 3 mph 1016.6mb 52f 57f
Di 07/22 11:54 3 5 mph 1016.4mb 52f 57f
11:48 3 6 mph 1016.7mb 52f 57f
11:36 6 7 mph 1016.8mb 52f 57f
11:30 5 7 mph 1016.8mb 52f 57f
11:24 2 6 mph 1016.7mb 52f 57f
11:18 2 6 mph 1016.8mb 52f 58f
11:12 3 5 mph 1016.9mb 52f 58f
11:06 3 5 mph 1016.9mb 52f 58f
11:00 2 3 mph 1016.9mb 52f 58f
10:54 3 6 mph 1017mb 52f 58f
10:48 6
mph
1017mb 52f 58f
10:36 5 6 mph 1017.1mb 52f 58f
10:30 2 3 mph 1017.1mb 52f 58f
10:24 2 6 mph 1017.1mb 52f 58f
10:18 6
mph
1016.9mb 52f 58f
10:12 3 6 mph 1017mb 52f 59f
10:06 2
mph
1017mb 52f 59f
10:00 2 5 mph 1017mb 52f 59f
9:54 3 5 mph 1017.1mb 52f 59f
9:48 3
mph
1017mb 52f 59f
9:36 2 3 mph 1017mb 51f 60f
9:30 2 3 mph 1016.9mb 51f 60f
9:24  -  1 mph 1017mb 51f 60f
9:18 1 2 mph 1017mb 51f 60f
9:12 1 2 mph 1017mb 51f 60f
9:06  -  2 mph 1017mb 51f 61f
9:00 2
mph
1017mb 51f 60f
8:54 2 3 mph 1016.9mb 51f 61f
8:48 1 2 mph 1017mb 51f 61f
8:36 2 5 mph 1017mb 51f 60f
8:30 5
mph
1017mb 51f 60f
8:24 5
mph
1017.1mb 51f 60f
8:18 3 6 mph 1017.1mb 52f 60f
8:12 6 7 mph 1017.2mb 52f 60f
8:06 5 6 mph 1017.1mb 52f 61f
8:00 6 7 mph 1017.1mb 52f 61f
7:54 3 5 mph 1017.1mb 52f 62f
7:48 5 6 mph 1017.1mb 52f 62f
7:36 5 6 mph 1017.2mb 52f 62f
7:30 5 7 mph 1017.2mb 52f 61f
7:24 6 7 mph 1017.2mb 52f 61f
7:18 6 7 mph 1017.2mb 52f 61f
7:12 6 7 mph 1017.1mb 52f 62f
7:06 5 7 mph 1017.1mb 52f 63f
7:00 5 7 mph 1017.1mb 52f 63f
6:54 7 8 mph 1017.2mb 52f 62f
6:48 8 9 mph 1017.2mb 52f 62f
6:36 9 11 mph 1017.3mb 53f 62f
6:30 11 13 mph 1017.3mb 53f 62f
6:24 10 11 mph 1017.3mb 53f 63f
6:18 10 11 mph 1017.3mb 53f 63f
6:12 9 10 mph 1017.4mb 53f 63f
6:06 8 9 mph 1017.4mb 53f 63f
6:00 8 9 mph 1017.4mb 53f 62f
5:54 6 7 mph 1017.5mb 53f 62f
5:48 6 7 mph 1017.5mb 53f 62f
5:36 8 9 mph 1017.6mb 52f 62f
5:30 6 8 mph 1017.6mb 52f 62f
5:24 6 8 mph 1017.7mb 52f 64f
5:18 6 7 mph 1017.7mb 52f 64f
5:12 3 6 mph 1017.7mb 52f 66f
5:06 2 3 mph 1017.8mb 52f 65f
5:00 3 6 mph 1017.7mb 52f 65f
4:54 5 6 mph 1017.8mb 52f 65f
4:48 5 6 mph 1017.8mb 52f 64f
4:36 5 6 mph 1018mb 52f 64f
4:30 3 5 mph 1018.1mb 52f 66f
4:24 2 3 mph 1018.1mb 52f 66f
4:18 2 3 mph 1018mb 52f 65f
4:12 3
mph
1018.1mb 52f 67f
4:06 2 5 mph 1018.2mb 52f 67f
4:00 2 6 mph 1018.2mb 52f 64f
3:54 5 7 mph 1018.2mb 52f 64f
3:48 7 8 mph 1018.2mb 52f 67f
3:36 6 8 mph 1018.2mb 52f 65f
3:30 6 7 mph 1018.3mb 52f 64f
3:24 6 8 mph 1018.3mb 52f 64f
3:18 6 8 mph 1018.3mb 52f 63f
3:12 6 7 mph 1018.3mb 52f 62f
3:06 6 9 mph 1018.4mb 52f 63f
3:00 6 8 mph 1018.4mb 52f 62f
2:54 7 8 mph 1018.4mb 52f 63f
2:48 7 9 mph 1018.4mb 52f 63f
2:36 7 9 mph 1018.3mb 52f 63f
2:30 7 8 mph 1018.3mb 52f 62f
2:24 7 8 mph 1018.3mb 52f 63f
2:18 6 9 mph 1018.3mb 52f 62f
2:12 8 9 mph 1018.3mb 52f 62f
2:06 6 8 mph 1018.3mb 52f 61f
2:00 8 9 mph 1018.3mb 52f 63f
1:54 7 9 mph 1018.3mb 52f 62f
1:48 8 9 mph 1018.3mb 52f 63f
1:36 9 10 mph 1018.2mb 52f 61f
1:30 8 10 mph 1018.1mb 52f 61f
1:24 8 10 mph 1018.1mb 52f 61f
1:18 8 10 mph 1018mb 52f 61f
1:12 7 9 mph 1018mb 52f 61f
1:06 6 8 mph 1018mb 52f 61f
1:00 8 10 mph 1018mb 52f 61f
12:54 8 10 mph 1018mb 52f 63f
12:48 7 8 mph 1018mb 52f 63f
12:36 3 6 mph 1018mb 52f 63f
12:30 5 7 mph 1017.9mb 52f 62f
12:24 7
mph
1017.9mb 52f 61f
12:18 6 8 mph 1017.9mb 52f 61f
12:12 7 9 mph 1017.9mb 52f 61f
12:06 8 9 mph 1017.9mb 52f 60f
12:00 8 9 mph 1017.9mb 52f 60f
11:54 9 11 mph 1017.9mb 52f 60f
11:48 8 11 mph 1017.9mb 52f 61f
11:36 9 13 mph 1017.8mb 52f 62f
11:30 9 11 mph 1017.8mb 52f 62f
11:24 8 11 mph 1017.8mb 52f 60f
11:18 8 11 mph 1017.6mb 52f 61f
11:12 10 14 mph 1017.7mb 52f 61f
11:06 9 13 mph 1017.7mb 52f 61f
11:00 9 14 mph 1017.6mb 52f 60f
10:54 11 13 mph 1017.6mb 52f 60f
10:48 13 15 mph 1017.5mb 52f 60f
10:36 5 9 mph 1017.5mb 52f 62f
10:30 9 10 mph 1017.4mb 52f 61f
10:24 7 8 mph 1017.5mb 52f 60f
10:18 8 11 mph 1017.5mb 52f 59f
10:12 10 11 mph 1017.4mb 52f 59f
10:06 9 11 mph 1017.4mb 52f 59f
10:00 9 13 mph 1017.4mb 52f 59f
9:54 11 13 mph 1017.4mb 52f 60f
9:48 8 11 mph 1017.4mb 52f 60f
9:36 9 11 mph 1017.4mb 52f 60f
9:30 9 11 mph 1017.4mb 52f 59f
9:24 10 11 mph 1017.3mb 52f 59f
9:18 9 11 mph 1017.3mb 52f 59f
9:12 10 11 mph 1017.3mb 52f 60f
9:06 7 10 mph 1017.3mb 52f 60f
9:00 9 11 mph 1017.3mb 52f 60f
8:54 7 8 mph 1017.3mb 52f 59f
8:48 8 10 mph 1017.3mb 52f 59f
8:36 9 10 mph 1017.2mb 52f 60f
8:30 8 10 mph 1017.3mb 52f 59f
8:24 7 8 mph 1017.2mb 52f 60f
8:18 6 7 mph 1017.2mb 52f 60f
8:12 5 8 mph 1017.2mb 52f 59f
8:06 5 6 mph 1017.2mb 52f 59f
8:00 5 7 mph 1017.1mb 52f 59f
7:54 6
mph
1017mb 52f 59f
7:48 5 6 mph 1017mb 52f 58f
7:36 3 5 mph 1016.9mb 52f 58f
7:30 3
mph
1016.9mb 52f 58f
7:24 2
mph
1016.9mb 52f 59f
7:18 3 6 mph 1016.8mb 52f 58f
7:12 3 6 mph 1016.7mb 52f 58f
7:06 3 6 mph 1016.8mb 52f 58f
7:00 2 5 mph 1016.9mb 52f 58f
6:54 3 5 mph 1016.8mb 52f 58f
6:48 2 5 mph 1016.8mb 52f 58f
6:36 2 5 mph 1016.7mb 52f 56f
6:30 3 5 mph 1016.7mb 52f 57f
6:24 3 5 mph 1016.7mb 52f 58f
6:18 2 3 mph 1016.7mb 52f 57f
6:12 2 3 mph 1016.7mb 52f 57f
6:06 2 5 mph 1016.7mb 52f 57f
6:00 1 2 mph 1016.7mb 52f 56f
5:54 1 3 mph 1016.7mb 52f 56f
5:48 3 7 mph 1016.7mb 52f 56f
5:36 6 9 mph 1016.7mb 52f 57f
5:30 6 8 mph 1016.8mb 52f 58f
5:24 6 7 mph 1016.8mb 52f 58f
5:18 6 8 mph 1016.8mb 52f 58f
5:12 5 9 mph 1016.8mb 52f 58f
5:06 6 8 mph 1016.7mb 52f 58f
5:00 7 10 mph 1016.7mb 52f 58f
4:54 7 10 mph 1016.6mb 52f 58f
4:48 8 10 mph 1016.6mb 52f 58f
4:36 5 8 mph 1016.6mb 52f 58f
4:30 6 9 mph 1016.6mb 52f 58f
4:24 5 9 mph 1016.6mb 52f 58f
4:18 3 9 mph 1016.6mb 52f 58f
4:12 6 10 mph 1016.5mb 52f 58f
4:06 6 10 mph 1016.5mb 52f 58f
4:00 6 10 mph 1016.6mb 52f 57f
3:54 3 8 mph 1016.5mb 52f 57f
3:48 6 9 mph 1016.5mb 52f 57f
3:36 6 10 mph 1016.5mb 52f 57f
3:30 5 10 mph 1016.5mb 52f 57f
3:24 6 11 mph 1016.4mb 52f 57f
3:18 6 11 mph 1016.5mb 52f 57f
3:12 6 10 mph 1016.5mb 52f 57f
3:06 7 11 mph 1016.6mb 52f 57f
3:00 7 11 mph 1016.6mb 52f 57f
2:54 7 10 mph 1016.6mb 52f 57f
2:48 6 13 mph 1016.6mb 52f 57f
2:36 10 13 mph 1016.5mb 52f 57f
2:30 8 13 mph 1016.4mb 52f 57f
2:24 7 11 mph 1016.5mb 52f 56f
2:18 6 11 mph 1016.5mb 52f 57f
2:12 6 13 mph 1016.6mb 52f 56f
2:06 3 7 mph 1016.5mb 52f 54f
2:00 2 3 mph 1016.5mb 52f 53f
1:54 2 3 mph 1016.5mb 52f 54f
1:48 3 5 mph 1016.5mb 52f 54f
1:36 2 3 mph 1016.4mb 52f 54f